Stoddard, New Hampshire
Current Conditions -  °F | °C
As of 1:15 PM on Thursday 29 Jan 2015 (Local Time) from KEEN Reporting Station
Clear Clear  
Wind Chill: 25°   Ceiling: Unl
Heat Index: 25°   Visibility: 10mi
Dew Point:   Wind: 0mph
Humidity: 40%   Direction: NA
Pressure: 30.18"   Gusts: NA
Location:  43.08°N, 72.11°W
Report Text: KEEN 291815Z AUTO 00000KT 10SM CLR M04/M16 A3018 RMK AO1
Loading
Personal Weather Stations






























Interactive Weather Map New forecast layout! Learn more

10-Day Weather Forecast

Advertisements
Track Severe Weather on mobile